Time;durP1;ratioP1;P1;durP2;ratioP2;P2;SDS_P1;SDS_P2;PMS_P1;PMS_P2;Temp;Humidity;BMP_temperature;BMP_pressure;BME280_temperature;BME280_humidity;BME280_pressure;Samples;Min_cycle;Max_cycle;Signal;HPM_P1;HPM_P2
2022/07/26 00:01:45;;;;;;;8.68;3.03;;;21.30;99.90;;;;;;5094109;28;20222;-75
2022/07/26 00:04:11;;;;;;;4.72;2.85;;;21.20;99.90;;;;;;5094103;28;20228;-75
2022/07/26 00:06:38;;;;;;;6.68;3.40;;;21.30;99.90;;;;;;5094297;28;20207;-75
2022/07/26 00:09:05;;;;;;;7.35;3.42;;;21.20;99.90;;;;;;5094109;28;20228;-76
2022/07/26 00:11:32;;;;;;;6.82;3.10;;;21.20;99.90;;;;;;5093815;28;20197;-76
2022/07/26 00:13:59;;;;;;;6.55;2.92;;;21.10;99.90;;;;;;5093997;28;20200;-75
2022/07/26 00:16:26;;;;;;;7.07;2.90;;;21.10;99.90;;;;;;5094035;28;20224;-76
2022/07/26 00:18:54;;;;;;;3.95;2.90;;;21.10;99.90;;;;;;5093811;28;20250;-76
2022/07/26 00:21:21;;;;;;;7.82;3.00;;;21.10;99.90;;;;;;5093727;28;20191;-77
2022/07/26 00:24:07;;;;;;;5.80;2.75;;;21.20;99.90;;;;;;5093683;28;20200;-76
2022/07/26 00:26:34;;;;;;;3.85;2.63;;;21.20;99.90;;;;;;5093655;28;20212;-76
2022/07/26 00:29:02;;;;;;;6.53;2.97;;;21.30;99.90;;;;;;5093722;28;20564;-75
2022/07/26 00:31:29;;;;;;;4.05;2.83;;;21.20;99.90;;;;;;5093553;28;20313;-75
2022/07/26 00:33:57;;;;;;;7.65;2.92;;;21.20;99.90;;;;;;5093423;28;20598;-76
2022/07/26 00:36:26;;;;;;;4.10;2.30;;;21.30;99.90;;;;;;5093292;28;20220;-75
2022/07/26 00:38:52;;;;;;;9.18;2.60;;;21.20;99.90;;;;;;5093362;28;20299;-75
2022/07/26 00:41:19;;;;;;;7.75;2.65;;;21.10;99.90;;;;;;5093810;28;20278;-75
2022/07/26 00:43:56;;;;;;;5.40;2.45;;;21.20;99.90;;;;;;5093456;28;20245;-76
2022/07/26 00:46:23;;;;;;;6.95;2.70;;;21.10;99.90;;;;;;5093276;28;20219;-75
2022/07/26 00:48:50;;;;;;;4.70;2.72;;;21.20;99.90;;;;;;5093146;28;20208;-75
2022/07/26 00:51:19;;;;;;;5.13;2.80;;;21.00;99.90;;;;;;5093129;28;20300;-75
2022/07/26 00:53:46;;;;;;;5.63;2.50;;;21.00;99.90;;;;;;5093641;28;20287;-75
2022/07/26 00:56:14;;;;;;;6.70;2.85;;;20.80;99.90;;;;;;5093343;28;20265;-76
2022/07/26 00:58:41;;;;;;;4.60;2.65;;;20.80;99.90;;;;;;5093155;28;20203;-76
2022/07/26 01:01:08;;;;;;;3.75;2.10;;;20.80;99.90;;;;;;5093066;28;20253;-76
2022/07/26 01:03:35;;;;;;;5.25;2.35;;;20.80;99.90;;;;;;5092911;28;20200;-75
2022/07/26 01:06:02;;;;;;;4.20;2.90;;;20.70;99.90;;;;;;5092854;28;20206;-76
2022/07/26 01:08:30;;;;;;;7.50;2.65;;;20.50;99.90;;;;;;5093125;28;20663;-75
2022/07/26 01:10:56;;;;;;;4.47;2.45;;;20.50;99.90;;;;;;5092901;28;20598;-75
2022/07/26 01:13:23;;;;;;;9.32;2.63;;;20.60;99.90;;;;;;5092957;28;20197;-75
2022/07/26 01:15:50;;;;;;;4.40;2.67;;;20.50;99.90;;;;;;5092790;28;20253;-75
2022/07/26 01:18:16;;;;;;;4.75;2.85;;;20.40;99.90;;;;;;5092570;28;20199;-76
2022/07/26 01:20:44;;;;;;;5.93;2.70;;;20.40;99.90;;;;;;5093053;28;20193;-74
2022/07/26 01:23:13;;;;;;;5.00;2.50;;;20.50;99.90;;;;;;5092902;28;20217;-76
2022/07/26 01:25:39;;;;;;;4.75;2.58;;;20.40;99.90;;;;;;5092849;28;20234;-76
2022/07/26 01:28:06;;;;;;;9.02;2.50;;;20.40;99.90;;;;;;5092817;28;20196;-77
2022/07/26 01:30:33;;;;;;;6.50;2.45;;;20.50;99.90;;;;;;5092551;28;20598;-76
2022/07/26 01:32:59;;;;;;;6.75;2.67;;;20.40;99.90;;;;;;5092743;28;20204;-77
2022/07/26 01:35:26;;;;;;;7.80;2.53;;;20.50;99.90;;;;;;5092757;28;20273;-76
2022/07/26 01:37:53;;;;;;;9.77;2.75;;;20.40;99.90;;;;;;5092662;28;20200;-77
2022/07/26 01:40:21;;;;;;;4.65;2.60;;;20.40;99.90;;;;;;5092691;28;20240;-76
2022/07/26 01:42:47;;;;;;;3.63;2.50;;;20.40;99.90;;;;;;5092536;28;20676;-75
2022/07/26 01:45:14;;;;;;;5.82;2.90;;;20.40;99.90;;;;;;5092567;28;20196;-76
2022/07/26 01:47:41;;;;;;;5.05;2.70;;;20.30;99.90;;;;;;5092832;28;20253;-76
2022/07/26 01:50:09;;;;;;;4.90;2.42;;;20.30;99.90;;;;;;5092648;28;20196;-76
2022/07/26 01:52:36;;;;;;;5.13;2.42;;;20.40;99.90;;;;;;5092629;28;20200;-76
2022/07/26 01:55:03;;;;;;;9.02;2.63;;;20.30;99.90;;;;;;5092592;28;20200;-76
2022/07/26 01:57:32;;;;;;;4.95;2.72;;;20.30;99.90;;;;;;5094613;28;20311;-76
2022/07/26 01:59:58;;;;;;;4.90;2.47;;;20.40;99.90;;;;;;5096436;28;20590;-76
2022/07/26 02:02:25;;;;;;;4.15;2.30;;;20.30;99.90;;;;;;5096344;28;20728;-75
2022/07/26 02:05:00;;;;;;;6.25;2.50;;;20.30;99.90;;;;;;5096499;28;20199;-76
2022/07/26 02:07:28;;;;;;;5.10;2.70;;;20.20;99.90;;;;;;5096291;28;20195;-76
2022/07/26 02:09:55;;;;;;;4.38;2.60;;;20.20;99.90;;;;;;5096169;28;20716;-76
2022/07/26 02:12:23;;;;;;;6.38;2.70;;;20.10;99.90;;;;;;5096150;28;20540;-76
2022/07/26 02:14:51;;;;;;;6.30;2.90;;;20.10;99.90;;;;;;5096642;28;20204;-77
2022/07/26 02:17:18;;;;;;;4.53;2.45;;;20.20;99.90;;;;;;5096344;28;20224;-76
2022/07/26 02:19:44;;;;;;;8.82;2.58;;;20.20;99.90;;;;;;5096153;28;20200;-77
2022/07/26 02:22:11;;;;;;;5.90;2.65;;;20.20;99.90;;;;;;5096188;28;20246;-76
2022/07/26 02:24:38;;;;;;;3.63;2.60;;;20.20;99.90;;;;;;5095984;28;20257;-76
2022/07/26 02:27:05;;;;;;;6.25;2.67;;;20.20;99.90;;;;;;5095859;28;20192;-76
2022/07/26 02:29:32;;;;;;;5.20;2.78;;;20.20;99.90;;;;;;5096086;28;20192;-77
2022/07/26 02:32:00;;;;;;;4.88;2.40;;;20.20;99.90;;;;;;5095991;28;20192;-76
2022/07/26 02:34:27;;;;;;;3.28;2.53;;;20.10;99.90;;;;;;5095925;28;20255;-76
2022/07/26 02:36:54;;;;;;;5.22;3.05;;;20.10;99.90;;;;;;5095655;28;20714;-76
2022/07/26 02:39:21;;;;;;;4.05;2.40;;;20.00;99.90;;;;;;5095578;28;20252;-76
2022/07/26 02:41:48;;;;;;;3.75;2.90;;;20.10;99.90;;;;;;5095615;28;20628;-76
2022/07/26 02:44:15;;;;;;;5.00;2.80;;;20.10;99.90;;;;;;5095796;28;20226;-76
2022/07/26 02:46:42;;;;;;;4.68;2.70;;;20.00;99.90;;;;;;5095814;28;20254;-77
2022/07/26 02:49:10;;;;;;;4.97;2.90;;;20.00;99.90;;;;;;5095500;28;20740;-77
2022/07/26 02:51:36;;;;;;;3.78;2.50;;;20.00;99.90;;;;;;5095430;28;20193;-76
2022/07/26 02:54:03;;;;;;;4.22;2.75;;;20.00;99.90;;;;;;5095418;28;20225;-76
2022/07/26 02:56:30;;;;;;;6.05;2.83;;;19.90;99.90;;;;;;5095472;28;20228;-76
2022/07/26 02:58:57;;;;;;;5.20;2.90;;;19.90;99.90;;;;;;5095383;28;20598;-77
2022/07/26 03:01:23;;;;;;;5.00;2.67;;;19.90;99.90;;;;;;5095219;28;20652;-76
2022/07/26 03:03:50;;;;;;;6.22;2.67;;;19.90;99.90;;;;;;5095331;28;20196;-75
2022/07/26 03:06:19;;;;;;;4.07;2.55;;;19.90;99.90;;;;;;5095186;28;20200;-74
2022/07/26 03:08:46;;;;;;;3.33;2.70;;;19.90;99.90;;;;;;5093836;28;20192;-75
2022/07/26 03:11:13;;;;;;;2.97;2.65;;;19.80;99.90;;;;;;5095231;28;20208;-74
2022/07/26 03:13:39;;;;;;;3.75;2.72;;;19.90;99.90;;;;;;5095097;28;20799;-75
2022/07/26 03:16:07;;;;;;;4.07;2.72;;;19.90;99.90;;;;;;5094841;28;20212;-75
2022/07/26 03:18:34;;;;;;;4.13;2.50;;;19.90;99.90;;;;;;5094970;28;20196;-75
2022/07/26 03:21:00;;;;;;;5.85;2.78;;;19.90;99.90;;;;;;5094877;28;20270;-75
2022/07/26 03:23:32;;;;;;;5.00;2.50;;;20.00;99.90;;;;;;5094983;28;20204;-75
2022/07/26 03:25:58;;;;;;;3.00;2.38;;;19.90;99.90;;;;;;5094981;28;20286;-74
2022/07/26 03:28:25;;;;;;;5.93;2.65;;;19.90;99.90;;;;;;5094743;28;20257;-75
2022/07/26 03:30:52;;;;;;;4.00;2.60;;;19.80;99.90;;;;;;5094736;28;20267;-75
2022/07/26 03:33:18;;;;;;;5.65;2.72;;;19.80;99.90;;;;;;5094660;28;20196;-75
2022/07/26 03:35:45;;;;;;;4.88;2.30;;;19.80;99.90;;;;;;5094424;28;20204;-75
2022/07/26 03:38:11;;;;;;;5.43;2.83;;;19.80;99.90;;;;;;5094523;28;20200;-75
2022/07/26 03:40:39;;;;;;;3.67;2.78;;;19.80;99.90;;;;;;5094513;28;20224;-75
2022/07/26 03:43:06;;;;;;;3.33;2.67;;;19.80;99.90;;;;;;5094449;28;20272;-75
2022/07/26 03:45:33;;;;;;;8.40;2.85;;;19.70;99.90;;;;;;5094712;28;20241;-75
2022/07/26 03:48:00;;;;;;;4.78;2.80;;;19.70;99.90;;;;;;5094246;28;20204;-75
2022/07/26 03:50:27;;;;;;;4.93;2.53;;;19.70;99.90;;;;;;5094187;28;20226;-76
2022/07/26 03:52:53;;;;;;;4.03;2.85;;;19.70;99.90;;;;;;5094442;28;20192;-76
2022/07/26 03:58:05;;;;;;;5.35;2.78;;;19.80;99.90;;;;;;5094159;28;20579;-77
2022/07/26 04:00:32;;;;;;;5.70;2.70;;;19.80;99.90;;;;;;5094149;28;20559;-76
2022/07/26 04:02:59;;;;;;;3.22;2.50;;;19.90;99.90;;;;;;5094182;28;20200;-76
2022/07/26 04:05:25;;;;;;;5.75;2.42;;;19.80;99.90;;;;;;5094124;28;20208;-74
2022/07/26 04:07:52;;;;;;;3.78;2.60;;;19.70;99.90;;;;;;5094045;28;20196;-75
2022/07/26 04:10:18;;;;;;;3.05;2.70;;;19.70;99.90;;;;;;5093935;28;20204;-75
2022/07/26 04:12:45;;;;;;;3.47;2.50;;;19.70;99.90;;;;;;5094324;28;20245;-75
2022/07/26 04:15:15;;;;;;;5.43;2.95;;;19.70;99.90;;;;;;5093732;28;20229;-75
2022/07/26 04:17:42;;;;;;;4.45;2.28;;;19.80;99.90;;;;;;5093929;28;20224;-75
2022/07/26 04:20:11;;;;;;;4.03;2.60;;;19.70;99.90;;;;;;5093406;28;20196;-75
2022/07/26 04:22:38;;;;;;;5.63;2.70;;;19.70;99.90;;;;;;5093548;28;20626;-75
2022/07/26 04:25:07;;;;;;;6.40;2.70;;;19.60;99.90;;;;;;5093644;28;20208;-76
2022/07/26 04:27:34;;;;;;;5.63;2.65;;;19.70;99.90;;;;;;5093684;28;20199;-74
2022/07/26 04:30:00;;;;;;;5.28;2.90;;;19.60;99.90;;;;;;5093779;28;20594;-75
2022/07/26 04:32:29;;;;;;;3.05;2.63;;;19.70;99.90;;;;;;5093635;28;20192;-73
2022/07/26 04:34:55;;;;;;;6.68;2.97;;;19.60;99.90;;;;;;5093563;28;20281;-75
2022/07/26 04:37:22;;;;;;;2.50;2.30;;;19.60;99.90;;;;;;5093379;28;20224;-75
2022/07/26 04:39:48;;;;;;;3.95;2.53;;;19.60;99.90;;;;;;5093209;28;20250;-75
2022/07/26 04:42:15;;;;;;;3.15;2.40;;;19.60;99.90;;;;;;5093174;28;20245;-75
2022/07/26 04:44:42;;;;;;;5.85;2.90;;;19.50;99.90;;;;;;5093476;28;20204;-74
2022/07/26 04:47:08;;;;;;;5.15;2.70;;;19.50;99.90;;;;;;5093297;28;20200;-75
2022/07/26 04:49:36;;;;;;;3.25;2.78;;;19.50;99.90;;;;;;5093303;28;20295;-75
2022/07/26 04:52:03;;;;;;;4.68;2.75;;;19.50;99.90;;;;;;5093228;28;20193;-76
2022/07/26 04:54:29;;;;;;;5.03;2.17;;;19.60;99.90;;;;;;5093104;28;20196;-75
2022/07/26 04:56:56;;;;;;;5.40;2.58;;;19.60;99.90;;;;;;5092856;28;20226;-75
2022/07/26 04:59:23;;;;;;;3.45;2.42;;;19.60;99.90;;;;;;5093301;28;20257;-75
2022/07/26 05:01:49;;;;;;;2.78;2.53;;;19.60;99.90;;;;;;5093157;28;20230;-74
2022/07/26 05:04:16;;;;;;;3.25;2.35;;;19.60;99.90;;;;;;5092910;28;20659;-75
2022/07/26 05:06:45;;;;;;;4.03;2.58;;;19.60;99.90;;;;;;5093024;28;20204;-75
2022/07/26 05:09:11;;;;;;;2.50;2.30;;;19.50;99.90;;;;;;5092851;28;20207;-74
2022/07/26 05:11:38;;;;;;;5.75;2.83;;;19.40;99.90;;;;;;5093161;28;20196;-75
2022/07/26 05:14:05;;;;;;;5.10;2.40;;;19.50;99.90;;;;;;5092941;28;20249;-75
2022/07/26 05:16:31;;;;;;;4.30;2.90;;;19.50;99.90;;;;;;5093137;28;20250;-75
2022/07/26 05:18:58;;;;;;;5.22;2.50;;;19.50;99.90;;;;;;5093662;28;20196;-73
2022/07/26 05:21:26;;;;;;;5.07;2.45;;;19.50;99.90;;;;;;5093519;28;20532;-73
2022/07/26 05:23:54;;;;;;;3.38;2.47;;;19.50;99.90;;;;;;5093065;28;20199;-73
2022/07/26 05:26:21;;;;;;;4.50;2.47;;;19.40;99.90;;;;;;5092805;28;20203;-73
2022/07/26 05:28:48;;;;;;;3.63;2.50;;;19.40;99.90;;;;;;5092655;28;20200;-73
2022/07/26 05:31:14;;;;;;;4.28;2.72;;;19.30;99.90;;;;;;5092819;28;20200;-73
2022/07/26 05:33:41;;;;;;;2.97;2.22;;;19.30;99.90;;;;;;5096944;28;20200;-73
2022/07/26 05:36:08;;;;;;;5.55;2.50;;;19.40;99.90;;;;;;5096855;28;20200;-73
2022/07/26 05:38:35;;;;;;;2.97;2.58;;;19.40;99.90;;;;;;5097022;28;20626;-73
2022/07/26 05:41:03;;;;;;;4.30;2.45;;;19.40;99.90;;;;;;5096449;28;20240;-72
2022/07/26 05:43:30;;;;;;;5.20;3.17;;;19.50;99.90;;;;;;5096609;28;20192;-72
2022/07/26 05:45:57;;;;;;;3.40;2.20;;;19.60;99.90;;;;;;5096725;28;20207;-72
2022/07/26 05:48:24;;;;;;;5.70;3.13;;;19.60;99.90;;;;;;5096676;28;20204;-75
2022/07/26 05:50:50;;;;;;;3.38;2.60;;;19.80;99.90;;;;;;5096100;28;20192;-73
2022/07/26 05:53:17;;;;;;;4.05;2.33;;;19.90;99.90;;;;;;5096022;28;20227;-74
2022/07/26 05:55:43;;;;;;;3.05;2.33;;;19.90;99.90;;;;;;5096553;28;20196;-78
2022/07/26 05:58:11;;;;;;;2.72;2.30;;;20.10;99.90;;;;;;5096329;28;20636;-79
2022/07/26 06:00:38;;;;;;;3.55;2.17;;;20.10;99.90;;;;;;5096569;28;20193;-78
2022/07/26 06:05:45;;;;;;;4.82;2.15;;;20.20;99.90;;;;;;5096076;28;20647;-78
2022/07/26 06:08:12;;;;;;;2.45;2.10;;;20.20;99.90;;;;;;5096475;28;20203;-78
2022/07/26 06:10:38;;;;;;;3.50;2.63;;;20.20;99.90;;;;;;5096638;28;20217;-72
2022/07/26 06:13:05;;;;;;;2.70;2.20;;;20.20;99.90;;;;;;5096247;28;20200;-73
2022/07/26 06:15:33;;;;;;;6.20;2.42;;;20.20;99.90;;;;;;5096116;28;20200;-74
2022/07/26 06:17:59;;;;;;;4.50;2.80;;;20.30;99.90;;;;;;5094962;28;20224;-73
2022/07/26 06:20:26;;;;;;;4.85;2.45;;;20.10;99.90;;;;;;5095841;28;20196;-72
2022/07/26 06:22:53;;;;;;;4.85;2.42;;;20.00;99.90;;;;;;5096442;28;20249;-76
2022/07/26 06:25:19;;;;;;;3.33;2.40;;;20.00;99.90;;;;;;5095949;28;20192;-77
2022/07/26 06:27:46;;;;;;;3.83;2.50;;;20.00;99.90;;;;;;5095809;28;20597;-77
2022/07/26 06:30:13;;;;;;;2.40;2.10;;;20.10;99.90;;;;;;5095845;28;20192;-75
2022/07/26 06:32:43;;;;;;;2.55;2.25;;;20.10;99.90;;;;;;5095786;28;20633;-79
2022/07/26 06:35:09;;;;;;;4.78;2.55;;;20.20;99.90;;;;;;5096114;28;20258;-79
2022/07/26 06:37:37;;;;;;;2.85;2.15;;;20.20;99.90;;;;;;5095473;28;20220;-79
2022/07/26 06:40:04;;;;;;;4.22;2.47;;;20.30;99.90;;;;;;5095549;28;20561;-79
2022/07/26 06:42:32;;;;;;;4.00;2.40;;;20.30;99.90;;;;;;5095359;28;20208;-80
2022/07/26 06:44:58;;;;;;;3.38;2.55;;;20.40;99.90;;;;;;5095388;28;20245;-80
2022/07/26 06:47:25;;;;;;;3.42;2.35;;;20.50;99.90;;;;;;5095384;28;20269;-80
2022/07/26 06:49:53;;;;;;;3.70;2.20;;;20.60;99.90;;;;;;5095576;28;20204;-80
2022/07/26 06:52:20;;;;;;;7.03;2.72;;;20.60;99.90;;;;;;5095467;28;20216;-79
2022/07/26 06:54:47;;;;;;;3.38;2.60;;;20.70;99.90;;;;;;5095395;28;20265;-80
2022/07/26 06:57:13;;;;;;;3.17;2.50;;;20.80;99.90;;;;;;5095284;28;20223;-80
2022/07/26 06:59:40;;;;;;;3.38;2.50;;;21.00;99.90;;;;;;5095153;28;20249;-80
2022/07/26 07:02:07;;;;;;;3.38;2.60;;;21.10;99.90;;;;;;5095128;28;20208;-80
2022/07/26 07:04:34;;;;;;;3.70;2.38;;;21.30;99.90;;;;;;5095489;28;20196;-80
2022/07/26 07:07:04;;;;;;;5.50;2.65;;;21.30;99.90;;;;;;5095115;28;20257;-80
2022/07/26 07:09:31;;;;;;;3.38;2.60;;;21.30;99.90;;;;;;5095211;28;20287;-80
2022/07/26 07:11:57;;;;;;;3.28;2.33;;;21.40;99.90;;;;;;5095004;28;20200;-79
2022/07/26 07:14:24;;;;;;;6.90;2.45;;;21.60;99.90;;;;;;5094729;28;20192;-79
2022/07/26 07:16:51;;;;;;;3.55;2.33;;;21.80;99.90;;;;;;5095005;28;20196;-80
2022/07/26 07:19:17;;;;;;;4.40;2.38;;;21.80;99.90;;;;;;5095064;28;20207;-80
2022/07/26 07:21:44;;;;;;;3.83;2.30;;;21.80;99.90;;;;;;5094897;28;20201;-80
2022/07/26 07:24:12;;;;;;;2.45;2.25;;;21.90;99.90;;;;;;5094785;28;20197;-81
2022/07/26 07:26:38;;;;;;;3.42;2.40;;;22.00;99.90;;;;;;5094915;28;20196;-79
2022/07/26 07:29:05;;;;;;;2.58;2.38;;;21.90;99.90;;;;;;5094909;28;20200;-78
2022/07/26 07:31:32;;;;;;;2.50;2.30;;;21.80;99.90;;;;;;5094827;28;20192;-79
2022/07/26 07:33:58;;;;;;;6.25;2.70;;;21.90;99.90;;;;;;5094841;28;20196;-80
2022/07/26 07:36:25;;;;;;;4.80;2.50;;;22.20;99.90;;;;;;5094733;28;20227;-79
2022/07/26 07:38:52;;;;;;;4.88;2.60;;;22.10;99.90;;;;;;5094516;28;20224;-80
2022/07/26 07:41:20;;;;;;;2.50;2.30;;;22.30;99.90;;;;;;5094498;28;20246;-80
2022/07/26 07:43:47;;;;;;;7.40;2.63;;;22.20;99.90;;;;;;5094496;28;20673;-81
2022/07/26 07:46:13;;;;;;;7.43;2.38;;;22.30;99.90;;;;;;5094570;28;20249;-80
2022/07/26 07:48:41;;;;;;;5.78;2.30;;;22.30;99.90;;;;;;5094488;28;20197;-80
2022/07/26 07:51:07;;;;;;;5.15;2.53;;;22.40;99.90;;;;;;5094294;28;20204;-80
2022/07/26 07:53:34;;;;;;;3.67;2.30;;;22.50;99.90;;;;;;5094178;28;20285;-79
2022/07/26 07:56:01;;;;;;;4.00;2.50;;;22.70;99.90;;;;;;5093877;28;20200;-79
2022/07/26 07:58:29;;;;;;;6.20;2.60;;;22.70;99.90;;;;;;5094490;28;20276;-79
2022/07/26 08:00:55;;;;;;;3.15;2.55;;;22.90;99.90;;;;;;5094825;28;20197;-79
2022/07/26 08:03:22;;;;;;;4.18;2.38;;;23.10;99.90;;;;;;5094115;28;20207;-79
2022/07/26 08:05:49;;;;;;;2.60;2.13;;;23.30;99.90;;;;;;5093884;28;20218;-78
2022/07/26 08:08:16;;;;;;;7.25;2.83;;;23.30;99.90;;;;;;5093948;28;20273;-78
2022/07/26 08:10:43;;;;;;;5.60;2.60;;;23.70;99.90;;;;;;5093849;28;20219;-81
2022/07/26 08:13:09;;;;;;;4.05;2.58;;;23.60;99.90;;;;;;5094087;28;20274;-81
2022/07/26 08:15:37;;;;;;;4.30;2.63;;;23.60;99.90;;;;;;5093737;28;20200;-81
2022/07/26 08:18:04;;;;;;;6.18;2.40;;;23.90;99.90;;;;;;5093736;28;20421;-80
2022/07/26 08:20:31;;;;;;;4.10;2.22;;;24.20;99.90;;;;;;5093674;28;20204;-80
2022/07/26 08:22:58;;;;;;;3.30;2.20;;;24.00;99.90;;;;;;5093605;28;20606;-80
2022/07/26 08:25:24;;;;;;;2.95;2.20;;;24.50;99.90;;;;;;5093926;28;20193;-80
2022/07/26 08:27:51;;;;;;;6.32;3.28;;;24.90;99.90;;;;;;5093771;28;20204;-79
2022/07/26 08:30:17;;;;;;;6.13;2.88;;;24.90;99.90;;;;;;5093501;28;20675;-79
2022/07/26 08:32:45;;;;;;;3.72;2.30;;;24.60;99.90;;;;;;5093626;28;20192;-79
2022/07/26 08:35:12;;;;;;;2.67;2.20;;;24.50;99.90;;;;;;5093724;28;20594;-79
2022/07/26 08:37:39;;;;;;;5.13;2.30;;;23.70;99.90;;;;;;5093329;28;20575;-80
2022/07/26 08:40:07;;;;;;;2.92;2.63;;;23.60;99.90;;;;;;5093249;28;20262;-79
2022/07/26 08:42:34;;;;;;;3.95;2.58;;;23.30;99.90;;;;;;5093597;28;20200;-81
2022/07/26 08:45:00;;;;;;;5.00;2.72;;;23.80;99.90;;;;;;5093334;28;20254;-80
2022/07/26 08:47:27;;;;;;;6.80;2.88;;;23.80;99.90;;;;;;5093447;28;20226;-80
2022/07/26 08:49:55;;;;;;;6.00;2.85;;;23.30;99.90;;;;;;5093413;28;20204;-80
2022/07/26 08:52:22;;;;;;;5.93;2.90;;;23.30;99.90;;;;;;5092966;28;20196;-80
2022/07/26 08:54:51;;;;;;;4.70;2.80;;;23.30;99.90;;;;;;5093023;28;20537;-81
2022/07/26 08:57:18;;;;;;;6.70;3.00;;;23.30;99.90;;;;;;5093658;28;20250;-81
2022/07/26 08:59:46;;;;;;;5.25;2.80;;;23.30;99.90;;;;;;5093261;28;20226;-80
2022/07/26 09:02:13;;;;;;;3.97;3.10;;;23.60;99.90;;;;;;5093265;28;20230;-81
2022/07/26 09:04:43;;;;;;;3.10;2.47;;;24.00;99.90;;;;;;5093089;28;20618;-80
2022/07/26 09:07:14;;;;;;;3.42;2.60;;;24.30;99.90;;;;;;5093411;28;20198;-80
2022/07/26 09:09:57;;;;;;;3.08;2.38;;;24.60;99.90;;;;;;5092970;28;20262;-79
2022/07/26 09:12:25;;;;;;;5.47;2.70;;;23.80;99.90;;;;;;5093070;28;20196;-80
2022/07/26 09:14:52;;;;;;;6.20;2.60;;;23.80;99.80;;;;;;5093353;28;20196;-79
2022/07/26 09:17:21;;;;;;;6.18;2.97;;;23.70;99.90;;;;;;5093019;28;20203;-80
2022/07/26 09:20:04;;;;;;;7.63;2.80;;;23.60;99.90;;;;;;5092981;28;20273;-80
2022/07/26 09:22:32;;;;;;;5.78;2.70;;;23.80;99.90;;;;;;5092877;28;20207;-80
2022/07/26 09:24:59;;;;;;;4.03;2.33;;;23.70;99.30;;;;;;5092797;28;20195;-80
2022/07/26 09:27:35;;;;;;;3.35;2.60;;;23.40;99.10;;;;;;5092764;28;20253;-81
2022/07/26 09:30:06;;;;;;;5.45;2.65;;;23.80;99.50;;;;;;5092728;28;20281;-80
2022/07/26 09:32:33;;;;;;;6.93;2.63;;;23.90;99.80;;;;;;5093185;28;20192;-80
2022/07/26 09:35:10;;;;;;;3.55;2.22;;;24.40;98.50;;;;;;5092994;28;20196;-79
2022/07/26 09:37:39;;;;;;;5.93;2.70;;;24.50;96.30;;;;;;5092771;28;20196;-79
2022/07/26 09:40:08;;;;;;;4.78;2.63;;;24.90;95.40;;;;;;5092381;28;20629;-80
2022/07/26 09:42:35;;;;;;;4.15;2.70;;;25.10;95.30;;;;;;5092435;28;20720;-80
2022/07/26 09:45:03;;;;;;;5.15;2.67;;;26.20;94.60;;;;;;5092744;28;20601;-81
2022/07/26 09:47:37;;;;;;;5.90;2.45;;;25.60;93.30;;;;;;5092826;28;20204;-80
2022/07/26 09:50:12;;;;;;;5.43;2.33;;;25.20;93.90;;;;;;5092646;28;20201;-80
2022/07/26 09:52:40;;;;;;;4.97;2.50;;;24.50;94.50;;;;;;5092475;28;20242;-80
2022/07/26 09:55:09;;;;;;;6.53;2.90;;;24.30;95.20;;;;;;5092732;28;20200;-80
2022/07/26 09:57:36;;;;;;;5.18;2.58;;;24.10;95.40;;;;;;5092485;28;20203;-80
2022/07/26 10:00:04;;;;;;;4.15;2.17;;;24.60;95.40;;;;;;5092613;28;20223;-80
2022/07/26 10:02:31;;;;;;;6.35;2.30;;;25.10;92.20;;;;;;5092715;28;20620;-79
2022/07/26 10:04:57;;;;;;;3.80;1.90;;;25.40;91.10;;;;;;5092479;28;20203;-79
2022/07/26 10:07:24;;;;;;;3.22;2.20;;;24.90;89.00;;;;;;5092167;28;20558;-80
2022/07/26 10:10:00;;;;;;;4.18;2.25;;;24.70;89.40;;;;;;5092554;28;20223;-80
2022/07/26 10:12:31;;;;;;;3.50;2.40;;;24.80;90.20;;;;;;5092516;28;20245;-80
2022/07/26 10:14:57;;;;;;;4.45;2.20;;;25.30;90.10;;;;;;5092478;28;20529;-80
2022/07/26 10:17:45;;;;;;;3.75;2.00;;;25.70;87.40;;;;;;5092651;28;20242;-80
2022/07/26 10:20:50;;;;;;;4.15;1.90;;;25.90;79.80;;;;;;5096227;28;20224;-80
2022/07/26 10:23:41;;;;;;;3.88;2.22;;;26.90;74.50;;;;;;5096467;28;20245;-80
2022/07/26 10:26:10;;;;;;;3.90;1.80;;;26.90;69.60;;;;;;5095894;28;20246;-80
2022/07/26 10:28:39;;;;;;;5.97;1.88;;;26.80;66.20;;;;;;5095974;28;20261;-80
2022/07/26 10:31:24;;;;;;;3.35;2.10;;;26.90;64.70;;;;;;5095995;28;20200;-80
2022/07/26 10:33:53;;;;;;;7.30;1.95;;;26.70;65.10;;;;;;5095865;28;20203;-79
2022/07/26 10:36:31;;;;;;;5.28;2.05;;;26.50;63.80;;;;;;5095833;28;20253;-79
2022/07/26 10:38:59;;;;;;;9.18;2.47;;;25.10;60.90;;;;;;5095655;28;20280;-80
2022/07/26 10:41:38;;;;;;;4.65;1.80;;;25.20;61.30;;;;;;5095857;28;20274;-80
2022/07/26 10:44:24;;;;;;;2.22;1.75;;;25.80;60.20;;;;;;5095629;28;20325;-79
2022/07/26 10:47:00;;;;;;;6.38;2.05;;;25.90;56.60;;;;;;5095389;28;20261;-80
2022/07/26 10:49:35;;;;;;;4.15;1.80;;;26.30;54.70;;;;;;5095648;28;20204;-79
2022/07/26 10:52:09;;;;;;;5.00;2.05;;;26.20;53.00;;;;;;5095311;28;20240;-78
2022/07/26 10:55:05;;;;;;;7.07;1.63;;;26.80;54.30;;;;;;5095677;28;20199;-80
2022/07/26 10:57:34;;;;;;;3.00;1.70;;;26.20;53.40;;;;;;5095315;28;20196;-79
2022/07/26 11:00:01;;;;;;;4.47;1.95;;;25.90;53.60;;;;;;5095363;28;20300;-79
2022/07/26 11:02:31;;;;;;;2.75;1.60;;;25.90;54.90;;;;;;5095340;28;20200;-79
2022/07/26 11:05:00;;;;;;;4.57;1.88;;;26.10;54.30;;;;;;5095330;28;20205;-79
2022/07/26 11:07:28;;;;;;;3.90;1.80;;;26.50;53.20;;;;;;5095360;28;20232;-79
2022/07/26 11:09:56;;;;;;;3.28;1.40;;;27.00;50.70;;;;;;5094916;28;20230;-79
2022/07/26 11:12:23;;;;;;;4.05;1.80;;;25.70;51.90;;;;;;5095280;28;20197;-79
2022/07/26 11:14:50;;;;;;;5.10;1.50;;;26.50;49.70;;;;;;5095145;28;20258;-80
2022/07/26 11:17:24;;;;;;;2.97;2.05;;;26.30;48.20;;;;;;5094986;28;20196;-79
2022/07/26 11:19:51;;;;;;;3.03;1.70;;;26.90;48.10;;;;;;5094661;28;20753;-80
2022/07/26 11:22:18;;;;;;;2.38;1.58;;;27.40;47.80;;;;;;5094817;28;20277;-79
2022/07/26 11:24:46;;;;;;;3.60;1.60;;;27.60;45.70;;;;;;5095130;28;20203;-80
2022/07/26 11:27:13;;;;;;;2.35;1.70;;;28.20;44.80;;;;;;5095166;28;20199;-80
2022/07/26 11:29:40;;;;;;;2.80;2.15;;;28.10;45.20;;;;;;5093894;28;20196;-79
2022/07/26 11:32:16;;;;;;;5.10;2.10;;;28.80;44.10;;;;;;5094660;28;20207;-80
2022/07/26 11:34:44;;;;;;;2.38;1.70;;;27.20;45.50;;;;;;5094587;28;20192;-80
2022/07/26 11:37:10;;;;;;;1.88;1.30;;;26.10;46.10;;;;;;5094703;28;20198;-80
2022/07/26 11:39:37;;;;;;;4.93;2.03;;;27.00;46.10;;;;;;5094279;28;20232;-79
2022/07/26 11:42:07;;;;;;;2.60;1.58;;;26.70;46.50;;;;;;5094535;28;20299;-79
2022/07/26 11:44:34;;;;;;;3.42;1.77;;;27.40;46.40;;;;;;5094339;28;20728;-78
2022/07/26 11:47:11;;;;;;;4.13;1.80;;;28.70;43.60;;;;;;5094374;28;20193;-80
2022/07/26 11:49:37;;;;;;;3.63;1.58;;;29.10;41.90;;;;;;5094646;28;20228;-80
2022/07/26 11:52:05;;;;;;;2.67;1.45;;;28.10;40.60;;;;;;5094211;28;20196;-80
2022/07/26 11:54:33;;;;;;;2.17;1.42;;;29.00;39.10;;;;;;5094461;28;20196;-80
2022/07/26 11:57:01;;;;;;;1.70;1.40;;;28.10;38.50;;;;;;5094406;28;20249;-80
2022/07/26 11:59:31;;;;;;;5.85;1.60;;;28.50;38.70;;;;;;5093897;28;20224;-80
2022/07/26 12:01:59;;;;;;;2.08;1.55;;;28.90;37.70;;;;;;5094018;28;20652;-79
2022/07/26 12:04:27;;;;;;;3.05;1.60;;;29.60;37.20;;;;;;5094189;28;20200;-80
2022/07/26 12:06:55;;;;;;;2.33;1.63;;;30.60;35.20;;;;;;5094075;28;20204;-80
2022/07/26 12:09:30;;;;;;;1.75;1.40;;;29.70;34.90;;;;;;5093968;28;20241;-80
2022/07/26 12:11:57;;;;;;;3.00;1.52;;;28.70;37.30;;;;;;5093613;28;20196;-79
2022/07/26 12:14:31;;;;;;;2.45;1.80;;;28.50;39.10;;;;;;5088648;28;20199;-77
2022/07/26 12:16:57;;;;;;;4.00;1.55;;;27.90;38.90;;;;;;5074784;28;20341;-79
2022/07/26 12:19:29;;;;;;;3.72;1.75;;;28.80;39.20;;;;;;5076238;28;20227;-79
2022/07/26 12:21:58;;;;;;;4.70;1.63;;;28.60;39.10;;;;;;5093605;28;20659;-80
2022/07/26 12:24:43;;;;;;;1.85;1.40;;;28.50;40.70;;;;;;5085111;28;20243;-80
2022/07/26 12:27:13;;;;;;;3.75;1.80;;;28.40;40.00;;;;;;5073575;28;20197;-80
2022/07/26 12:29:43;;;;;;;2.17;1.67;;;29.00;38.80;;;;;;5090377;28;20622;-80
2022/07/26 12:32:13;;;;;;;3.80;1.70;;;28.90;38.50;;;;;;5093588;28;20196;-80
2022/07/26 12:34:42;;;;;;;1.98;1.58;;;28.70;37.00;;;;;;5085256;28;20200;-79
2022/07/26 12:37:14;;;;;;;3.92;1.48;;;27.50;38.20;;;;;;5093484;28;20200;-80
2022/07/26 12:39:42;;;;;;;2.65;1.70;;;28.50;37.80;;;;;;5076631;28;20290;-80
2022/07/26 12:42:26;;;;;;;2.00;1.45;;;28.50;38.20;;;;;;5074973;28;20751;-80
2022/07/26 12:44:55;;;;;;;6.38;1.70;;;29.00;36.00;;;;;;5082688;28;20587;-80
2022/07/26 12:47:22;;;;;;;3.50;1.63;;;29.90;34.90;;;;;;5076458;28;20234;-80
2022/07/26 12:49:49;;;;;;;2.95;1.45;;;30.20;32.40;;;;;;5093256;28;20226;-79
2022/07/26 12:52:17;;;;;;;1.70;1.40;;;27.90;34.10;;;;;;5090860;28;20207;-80
2022/07/26 12:54:46;;;;;;;2.40;1.38;;;28.20;32.10;;;;;;5081853;28;20188;-79
2022/07/26 12:57:13;;;;;;;1.65;1.30;;;28.90;32.80;;;;;;5091581;28;20200;-79
2022/07/26 12:59:40;;;;;;;1.55;1.30;;;31.30;32.30;;;;;;5072712;28;20267;-79